Time;durP1;ratioP1;P1;durP2;ratioP2;P2;SDS_P1;SDS_P2;PMS_P1;PMS_P2;Temp;Humidity;BMP_temperature;BMP_pressure;BME280_temperature;BME280_humidity;BME280_pressure;Samples;Min_cycle;Max_cycle;Signal;HPM_P1;HPM_P2
2022/08/02 00:00:55;;;;;;;2.57;2.20;;;18.70;99.90;;;;;;5033166;28;20957;-69
2022/08/02 00:03:22;;;;;;;2.40;2.20;;;18.70;99.90;;;;;;5032410;28;20467;-68
2022/08/02 00:05:49;;;;;;;2.57;2.10;;;18.70;99.90;;;;;;5033006;28;21004;-69
2022/08/02 00:08:17;;;;;;;2.67;2.47;;;18.70;99.90;;;;;;5032815;28;20488;-67
2022/08/02 00:10:44;;;;;;;2.47;2.13;;;18.60;99.90;;;;;;5032573;28;20469;-66
2022/08/02 00:13:10;;;;;;;2.40;2.20;;;18.60;99.90;;;;;;5032811;28;20465;-67
2022/08/02 00:15:37;;;;;;;3.00;2.27;;;18.60;99.90;;;;;;5031928;28;20503;-68
2022/08/02 00:18:04;;;;;;;2.17;1.97;;;18.60;99.90;;;;;;5032766;28;20465;-69
2022/08/02 00:20:31;;;;;;;2.37;2.17;;;18.50;99.90;;;;;;5032558;28;20469;-68
2022/08/02 00:22:57;;;;;;;3.10;2.40;;;18.50;99.90;;;;;;5032513;28;20468;-68
2022/08/02 00:25:25;;;;;;;2.70;2.50;;;18.50;99.90;;;;;;5032005;28;20471;-69
2022/08/02 00:27:52;;;;;;;2.60;2.40;;;18.50;99.90;;;;;;5032306;28;20547;-67
2022/08/02 00:30:19;;;;;;;2.40;2.20;;;18.50;99.90;;;;;;5032540;28;20518;-69
2022/08/02 00:32:45;;;;;;;2.50;2.30;;;18.40;99.90;;;;;;5032419;28;20468;-67
2022/08/02 00:35:12;;;;;;;2.53;2.33;;;18.40;99.90;;;;;;5031647;28;20456;-68
2022/08/02 00:37:40;;;;;;;3.27;2.10;;;18.40;99.90;;;;;;5032558;28;20485;-68
2022/08/02 00:40:08;;;;;;;2.43;2.23;;;18.40;99.90;;;;;;5031915;28;20468;-68
2022/08/02 00:42:36;;;;;;;2.83;2.03;;;18.40;99.90;;;;;;5032407;28;20978;-68
2022/08/02 00:45:03;;;;;;;2.20;2.00;;;18.30;99.90;;;;;;5031446;28;20469;-67
2022/08/02 00:47:30;;;;;;;2.17;1.97;;;18.30;99.90;;;;;;5032151;28;20488;-69
2022/08/02 00:49:56;;;;;;;3.30;1.90;;;18.30;99.90;;;;;;5032190;28;20472;-68
2022/08/02 00:52:23;;;;;;;2.80;2.20;;;18.30;99.90;;;;;;5031615;28;20596;-67
2022/08/02 00:54:50;;;;;;;1.50;1.40;;;18.30;99.90;;;;;;5031549;28;20511;-68
2022/08/02 00:57:17;;;;;;;2.30;2.10;;;18.30;99.90;;;;;;5031573;28;20496;-70
2022/08/02 00:59:45;;;;;;;2.73;2.23;;;18.30;99.90;;;;;;5032501;28;20469;-67
2022/08/02 01:02:11;;;;;;;1.90;1.80;;;18.20;99.90;;;;;;5032414;28;20461;-67
2022/08/02 01:04:38;;;;;;;2.10;1.90;;;18.20;99.90;;;;;;5031577;28;20472;-68
2022/08/02 01:07:05;;;;;;;1.90;1.80;;;18.20;99.90;;;;;;5032380;28;20488;-68
2022/08/02 01:09:32;;;;;;;1.97;1.83;;;18.20;99.90;;;;;;5031782;28;20469;-69
2022/08/02 01:11:58;;;;;;;3.60;2.00;;;18.20;99.90;;;;;;5032597;28;20465;-68
2022/08/02 01:14:26;;;;;;;2.70;2.47;;;18.10;99.90;;;;;;5031352;28;20449;-68
2022/08/02 01:17:02;;;;;;;2.63;2.43;;;18.20;99.90;;;;;;5031992;28;20489;-68
2022/08/02 01:19:37;;;;;;;2.10;1.80;;;18.20;99.90;;;;;;5031851;28;20547;-68
2022/08/02 01:22:37;;;;;;;1.90;1.80;;;18.10;99.90;;;;;;5031540;28;20483;-68
2022/08/02 01:25:25;;;;;;;2.23;2.03;;;18.10;99.90;;;;;;5031425;28;20449;-68
2022/08/02 01:28:07;;;;;;;2.20;2.00;;;18.10;99.90;;;;;;5031559;28;20452;-68
2022/08/02 01:30:35;;;;;;;2.00;1.80;;;18.10;99.90;;;;;;5031852;28;20523;-67
2022/08/02 01:33:04;;;;;;;3.10;1.90;;;18.10;99.90;;;;;;5031311;28;20464;-68
2022/08/02 01:35:38;;;;;;;1.77;1.60;;;18.10;99.90;;;;;;5030919;28;20461;-68
2022/08/02 01:38:11;;;;;;;2.30;2.10;;;18.10;99.90;;;;;;5031312;28;20863;-68
2022/08/02 01:40:41;;;;;;;1.67;1.57;;;18.00;99.90;;;;;;5031558;28;20468;-68
2022/08/02 01:43:11;;;;;;;1.90;1.60;;;18.00;99.90;;;;;;5031361;28;20464;-68
2022/08/02 01:45:41;;;;;;;3.43;1.97;;;18.00;99.90;;;;;;5030507;28;20496;-68
2022/08/02 01:48:10;;;;;;;2.03;1.87;;;18.00;99.90;;;;;;5031282;28;20823;-67
2022/08/02 01:50:37;;;;;;;2.33;2.13;;;18.00;99.90;;;;;;5030993;28;20468;-69
2022/08/02 01:53:07;;;;;;;1.87;1.60;;;18.00;99.90;;;;;;5031021;28;20527;-67
2022/08/02 01:55:40;;;;;;;3.40;2.13;;;17.90;99.90;;;;;;5030468;28;20503;-67
2022/08/02 01:58:13;;;;;;;2.10;1.80;;;17.90;99.90;;;;;;5030660;28;20484;-68
2022/08/02 02:00:41;;;;;;;1.60;1.50;;;17.90;99.90;;;;;;5031131;28;20457;-65
2022/08/02 02:03:12;;;;;;;1.60;1.50;;;17.90;99.90;;;;;;5030264;28;20472;-67
2022/08/02 02:05:40;;;;;;;2.63;2.40;;;17.90;99.90;;;;;;5030490;28;20481;-67
2022/08/02 02:08:08;;;;;;;2.70;1.50;;;17.90;99.90;;;;;;5030610;28;20933;-66
2022/08/02 02:10:38;;;;;;;1.70;1.60;;;17.90;99.90;;;;;;5030740;28;20461;-67
2022/08/02 02:13:08;;;;;;;2.30;1.93;;;17.90;99.90;;;;;;5030853;28;20465;-67
2022/08/02 02:15:42;;;;;;;2.20;2.00;;;17.90;99.90;;;;;;5029820;28;20496;-67
2022/08/02 02:18:12;;;;;;;3.90;1.90;;;17.90;99.90;;;;;;5030501;28;20495;-67
2022/08/02 02:20:39;;;;;;;2.37;2.17;;;17.90;99.90;;;;;;5030540;28;20468;-67
2022/08/02 02:23:06;;;;;;;2.27;2.07;;;17.90;99.90;;;;;;5030589;28;20511;-68
2022/08/02 02:25:34;;;;;;;2.20;2.00;;;17.90;99.90;;;;;;5029979;28;20523;-67
2022/08/02 02:28:03;;;;;;;2.20;2.00;;;17.90;99.90;;;;;;5030385;28;20879;-67
2022/08/02 02:30:32;;;;;;;2.17;1.80;;;17.90;99.90;;;;;;5030480;28;20468;-68
2022/08/02 02:33:02;;;;;;;2.17;1.97;;;17.90;99.90;;;;;;5030307;28;20465;-68
2022/08/02 02:35:35;;;;;;;2.30;2.10;;;17.90;99.90;;;;;;5029922;28;20960;-67
2022/08/02 02:38:04;;;;;;;2.00;1.80;;;17.80;99.90;;;;;;5030382;28;21003;-68
2022/08/02 02:40:32;;;;;;;2.00;1.90;;;17.80;99.90;;;;;;5030653;28;20468;-67
2022/08/02 02:43:01;;;;;;;2.03;1.90;;;17.80;99.90;;;;;;5031588;28;20461;-68
2022/08/02 02:45:30;;;;;;;4.80;2.30;;;17.80;99.90;;;;;;5030584;28;20468;-68
2022/08/02 02:47:57;;;;;;;2.13;2.00;;;17.80;99.90;;;;;;5031439;28;20459;-68
2022/08/02 02:50:26;;;;;;;2.17;1.83;;;17.80;99.90;;;;;;5030860;28;20465;-68
2022/08/02 02:52:54;;;;;;;2.47;2.27;;;17.80;99.90;;;;;;5031489;28;20574;-68
2022/08/02 02:55:22;;;;;;;2.30;1.93;;;17.80;99.90;;;;;;5110095;22;20915;-74
2022/08/02 02:57:50;;;;;;;2.17;1.97;;;17.80;99.90;;;;;;5045365;28;20455;-71
2022/08/02 03:00:17;;;;;;;1.93;1.83;;;17.80;99.90;;;;;;5050235;28;20829;-71
2022/08/02 03:02:45;;;;;;;2.03;1.70;;;17.80;99.90;;;;;;5049755;28;20464;-72
2022/08/02 03:05:12;;;;;;;2.00;1.80;;;17.70;99.90;;;;;;5049608;28;20840;-71
2022/08/02 03:07:40;;;;;;;2.80;1.90;;;17.70;99.90;;;;;;5049913;28;20697;-71
2022/08/02 03:10:09;;;;;;;2.63;1.93;;;17.70;99.90;;;;;;5050122;28;20477;-71
2022/08/02 03:12:36;;;;;;;4.03;2.43;;;17.70;99.90;;;;;;5050082;28;20460;-71
2022/08/02 03:15:08;;;;;;;6.20;1.80;;;17.60;99.90;;;;;;5049745;28;20459;-71
2022/08/02 03:17:39;;;;;;;2.40;2.17;;;17.60;99.90;;;;;;5053908;28;20537;-72
2022/08/02 03:20:12;;;;;;;2.40;2.07;;;17.50;99.90;;;;;;5053570;28;20958;-71
2022/08/02 03:22:38;;;;;;;3.00;2.03;;;17.50;99.90;;;;;;5053964;28;20460;-71
2022/08/02 03:25:07;;;;;;;2.90;2.17;;;17.50;99.90;;;;;;5053274;28;20501;-72
2022/08/02 03:27:34;;;;;;;2.07;1.87;;;17.50;99.90;;;;;;5053308;28;20491;-71
2022/08/02 03:30:01;;;;;;;2.00;1.70;;;17.40;99.90;;;;;;5053542;28;20464;-72
2022/08/02 03:32:28;;;;;;;2.33;2.13;;;17.40;99.90;;;;;;5053365;28;20468;-71
2022/08/02 03:34:55;;;;;;;3.23;2.03;;;17.30;99.90;;;;;;5052754;28;20471;-72
2022/08/02 03:37:22;;;;;;;2.43;1.90;;;17.30;99.90;;;;;;5053466;28;20507;-70
2022/08/02 03:39:49;;;;;;;1.80;1.70;;;17.30;99.90;;;;;;5052962;28;20850;-71
2022/08/02 03:42:18;;;;;;;2.03;1.83;;;17.30;99.90;;;;;;5053427;28;20521;-72
2022/08/02 03:44:46;;;;;;;2.17;1.60;;;17.20;99.90;;;;;;5052275;28;20459;-71
2022/08/02 03:47:13;;;;;;;2.57;1.70;;;17.20;99.90;;;;;;5053380;28;20487;-74
2022/08/02 03:49:40;;;;;;;2.10;1.90;;;17.20;99.90;;;;;;5052534;28;20460;-71
2022/08/02 03:52:06;;;;;;;2.10;1.90;;;17.20;99.90;;;;;;5053443;28;20468;-72
2022/08/02 03:54:33;;;;;;;2.03;1.83;;;17.10;99.90;;;;;;5052713;28;20483;-72
2022/08/02 03:57:00;;;;;;;2.17;1.83;;;17.10;99.90;;;;;;5052571;28;20490;-71
2022/08/02 03:59:28;;;;;;;2.23;2.03;;;17.10;99.90;;;;;;5053275;28;20582;-71
2022/08/02 04:01:55;;;;;;;1.60;1.50;;;17.10;99.90;;;;;;5052828;28;20459;-72
2022/08/02 04:04:22;;;;;;;2.20;1.90;;;17.10;99.90;;;;;;5052929;28;20464;-72
2022/08/02 04:06:48;;;;;;;2.23;2.00;;;17.00;99.90;;;;;;5052377;28;20507;-70
2022/08/02 04:09:15;;;;;;;1.80;1.70;;;17.00;99.90;;;;;;5052839;28;20460;-71
2022/08/02 04:11:42;;;;;;;1.90;1.70;;;17.00;99.90;;;;;;5052943;28;20460;-72
2022/08/02 04:14:10;;;;;;;1.70;1.60;;;17.00;99.90;;;;;;5052282;28;20863;-71
2022/08/02 04:16:42;;;;;;;2.30;2.00;;;17.00;99.90;;;;;;5052598;28;20476;-71
2022/08/02 04:19:11;;;;;;;1.70;1.60;;;17.00;99.90;;;;;;5046529;28;20879;-71
2022/08/02 04:21:41;;;;;;;2.77;2.13;;;17.00;99.90;;;;;;5040752;28;20457;-71
2022/08/02 04:24:09;;;;;;;2.33;1.70;;;16.90;99.90;;;;;;5041333;28;20468;-71
2022/08/02 04:26:37;;;;;;;2.70;2.00;;;16.90;99.90;;;;;;5041942;28;20479;-71
2022/08/02 04:29:07;;;;;;;1.90;1.80;;;16.90;99.90;;;;;;5041537;28;20795;-71
2022/08/02 04:31:35;;;;;;;2.30;2.10;;;16.90;99.90;;;;;;5040553;28;20491;-72
2022/08/02 04:34:03;;;;;;;2.13;1.93;;;16.90;99.90;;;;;;5040474;28;20829;-72
2022/08/02 04:36:31;;;;;;;2.30;2.10;;;16.90;99.90;;;;;;5041226;28;21009;-72
2022/08/02 04:38:58;;;;;;;2.73;2.13;;;16.90;99.90;;;;;;5042686;28;20563;-72
2022/08/02 04:41:37;;;;;;;2.03;1.90;;;16.90;99.90;;;;;;5041480;28;20491;-73
2022/08/02 04:44:04;;;;;;;1.97;1.63;;;16.90;99.90;;;;;;5040638;28;20456;-73
2022/08/02 04:46:31;;;;;;;1.88;1.77;;;16.90;99.90;;;;;;5041101;28;20460;-72
2022/08/02 04:48:58;;;;;;;1.93;1.83;;;16.90;99.90;;;;;;5048251;28;20197;-72
2022/08/02 04:51:26;;;;;;;2.33;2.13;;;16.90;99.90;;;;;;5052147;28;20841;-71
2022/08/02 04:53:53;;;;;;;2.60;1.70;;;16.90;99.90;;;;;;5051349;28;20474;-72
2022/08/02 04:56:19;;;;;;;9.63;2.43;;;17.00;99.90;;;;;;5051661;28;20492;-72
2022/08/02 04:58:46;;;;;;;2.17;1.97;;;17.00;99.90;;;;;;5051803;28;20487;-72
2022/08/02 05:01:13;;;;;;;2.20;2.00;;;17.00;99.90;;;;;;5051639;28;20453;-72
2022/08/02 05:03:39;;;;;;;1.90;1.80;;;17.00;99.90;;;;;;5032512;28;20461;-72
2022/08/02 05:06:06;;;;;;;2.40;2.13;;;17.00;99.90;;;;;;5031419;28;20492;-72
2022/08/02 05:08:34;;;;;;;2.10;1.90;;;17.00;99.90;;;;;;5031492;28;20894;-72
2022/08/02 05:11:01;;;;;;;3.30;2.00;;;17.10;99.90;;;;;;5031515;28;20489;-73
2022/08/02 05:13:27;;;;;;;2.07;1.70;;;17.10;99.90;;;;;;5030829;28;20465;-73
2022/08/02 05:15:54;;;;;;;2.40;2.17;;;17.20;99.90;;;;;;5031223;28;20489;-72
2022/08/02 05:18:21;;;;;;;2.33;1.87;;;17.20;99.90;;;;;;5029645;28;20472;-73
2022/08/02 05:20:48;;;;;;;2.50;2.17;;;17.30;99.90;;;;;;5048450;28;20460;-73
2022/08/02 05:23:14;;;;;;;2.00;1.90;;;17.30;99.90;;;;;;5051150;28;20487;-73
2022/08/02 05:25:42;;;;;;;2.57;2.00;;;17.40;99.90;;;;;;5049994;28;20484;-73
2022/08/02 05:28:09;;;;;;;3.70;2.20;;;17.40;99.90;;;;;;5051363;28;20820;-73
2022/08/02 05:30:36;;;;;;;2.53;2.10;;;17.50;99.90;;;;;;5050640;28;20467;-72
2022/08/02 05:33:03;;;;;;;3.23;2.30;;;17.50;99.90;;;;;;5051041;28;20514;-73
2022/08/02 05:35:30;;;;;;;2.30;2.10;;;17.60;99.90;;;;;;5050318;28;20482;-73
2022/08/02 05:37:57;;;;;;;2.03;1.83;;;17.70;99.90;;;;;;5049480;28;20551;-73
2022/08/02 05:40:24;;;;;;;2.13;1.90;;;17.80;99.90;;;;;;5050849;28;20506;-73
2022/08/02 05:42:52;;;;;;;2.60;2.40;;;17.80;99.90;;;;;;5050315;28;20463;-73
2022/08/02 05:45:19;;;;;;;2.50;2.30;;;17.90;99.90;;;;;;5050240;28;20467;-73
2022/08/02 05:47:45;;;;;;;2.77;2.27;;;18.00;99.90;;;;;;5050491;28;20464;-73
2022/08/02 05:50:12;;;;;;;2.70;2.47;;;18.10;99.90;;;;;;5050118;28;20456;-73
2022/08/02 05:52:45;;;;;;;2.40;2.20;;;18.20;99.90;;;;;;5050592;28;20530;-73
2022/08/02 05:55:17;;;;;;;4.57;2.80;;;18.20;99.90;;;;;;5049472;28;20503;-73
2022/08/02 05:57:53;;;;;;;2.50;2.17;;;18.30;99.90;;;;;;5050337;28;20460;-73
2022/08/02 06:00:20;;;;;;;2.60;2.40;;;18.30;99.90;;;;;;5050849;28;21013;-72
2022/08/02 06:03:15;;;;;;;2.50;2.30;;;18.30;99.90;;;;;;5049891;28;20914;-72
2022/08/02 06:05:49;;;;;;;2.43;2.23;;;18.40;99.90;;;;;;5049539;28;20569;-73
2022/08/02 06:08:16;;;;;;;2.67;2.30;;;18.40;99.90;;;;;;5050123;28;20464;-73
2022/08/02 06:10:44;;;;;;;3.40;2.67;;;18.40;99.90;;;;;;5050170;28;20456;-73
2022/08/02 06:13:16;;;;;;;2.83;2.50;;;18.50;99.90;;;;;;5050140;28;20464;-73
2022/08/02 06:15:43;;;;;;;2.70;2.40;;;18.50;99.90;;;;;;5047902;28;20487;-73
2022/08/02 06:18:09;;;;;;;3.67;2.70;;;18.50;99.90;;;;;;5050197;28;20460;-73
2022/08/02 06:20:36;;;;;;;2.67;2.20;;;18.50;99.90;;;;;;5049617;28;21011;-73
2022/08/02 06:23:05;;;;;;;2.50;2.30;;;18.50;99.90;;;;;;5050321;28;20468;-73
2022/08/02 06:25:33;;;;;;;2.97;2.70;;;18.60;99.90;;;;;;5049553;28;20468;-72
2022/08/02 06:28:01;;;;;;;3.87;2.90;;;18.70;99.90;;;;;;5050370;28;20969;-73
2022/08/02 06:30:30;;;;;;;3.10;2.73;;;18.80;99.90;;;;;;5050000;28;20468;-73
2022/08/02 06:32:57;;;;;;;2.90;2.70;;;18.80;99.90;;;;;;5049615;28;20460;-73
2022/08/02 06:35:28;;;;;;;2.60;2.40;;;18.90;99.90;;;;;;5049462;28;21170;-73
2022/08/02 06:38:00;;;;;;;3.50;2.70;;;18.90;99.90;;;;;;5049693;28;20467;-73
2022/08/02 06:40:32;;;;;;;2.40;2.20;;;19.00;99.90;;;;;;5050048;28;20484;-73
2022/08/02 06:43:13;;;;;;;2.50;2.27;;;19.10;99.90;;;;;;5049607;28;20508;-73
2022/08/02 06:45:41;;;;;;;2.50;2.30;;;19.10;99.90;;;;;;5049248;28;20480;-73
2022/08/02 06:48:09;;;;;;;3.20;2.80;;;19.10;99.90;;;;;;5050010;28;20467;-73
2022/08/02 06:50:37;;;;;;;3.60;2.57;;;19.10;99.90;;;;;;5052524;28;20456;-73
2022/08/02 06:53:04;;;;;;;3.17;2.73;;;19.10;99.90;;;;;;5053820;28;20940;-73
2022/08/02 06:55:31;;;;;;;2.50;2.30;;;19.20;99.90;;;;;;5052682;28;20474;-73
2022/08/02 06:57:59;;;;;;;3.00;2.70;;;19.30;99.90;;;;;;5053630;28;20518;-73
2022/08/02 07:00:27;;;;;;;3.27;2.37;;;19.30;99.90;;;;;;5050161;28;20476;-73
2022/08/02 07:02:56;;;;;;;3.23;2.80;;;19.40;99.90;;;;;;5051324;28;20947;-73
2022/08/02 07:05:24;;;;;;;2.67;2.47;;;19.40;99.90;;;;;;5051957;28;20456;-73
2022/08/02 07:07:51;;;;;;;3.30;3.00;;;19.50;99.90;;;;;;5051536;28;21000;-73
2022/08/02 07:10:18;;;;;;;2.80;2.43;;;19.50;99.90;;;;;;5052668;28;20464;-73
2022/08/02 07:12:46;;;;;;;2.90;2.60;;;19.60;99.90;;;;;;5051698;28;20466;-73
2022/08/02 07:15:12;;;;;;;2.90;2.60;;;19.60;99.90;;;;;;5050364;28;20471;-73
2022/08/02 07:17:40;;;;;;;3.20;2.90;;;19.70;99.90;;;;;;5052306;28;20490;-74
2022/08/02 07:20:09;;;;;;;2.83;2.63;;;19.70;99.90;;;;;;5052204;28;20484;-73
2022/08/02 07:22:37;;;;;;;3.57;2.90;;;19.80;99.90;;;;;;5051872;28;20521;-73
2022/08/02 07:25:05;;;;;;;3.20;2.80;;;19.90;99.90;;;;;;5050041;28;20472;-73
2022/08/02 07:27:32;;;;;;;2.77;2.57;;;20.00;99.90;;;;;;5052137;28;20487;-73
2022/08/02 07:30:00;;;;;;;2.90;2.47;;;20.10;99.90;;;;;;5051866;28;20537;-74
2022/08/02 07:32:29;;;;;;;3.40;3.10;;;20.20;99.90;;;;;;5052675;28;20472;-74
2022/08/02 07:34:57;;;;;;;3.43;2.80;;;20.20;99.90;;;;;;5051433;28;20555;-74
2022/08/02 07:37:30;;;;;;;3.30;2.90;;;20.20;99.90;;;;;;5051300;28;20488;-73
2022/08/02 07:39:58;;;;;;;3.50;3.20;;;20.30;99.90;;;;;;5039984;28;20491;-74
2022/08/02 07:42:27;;;;;;;3.43;3.13;;;20.50;99.90;;;;;;5050997;28;20472;-74
2022/08/02 07:44:54;;;;;;;3.40;3.10;;;20.50;99.90;;;;;;5047701;28;20978;-73
2022/08/02 07:47:22;;;;;;;3.97;3.20;;;20.60;99.90;;;;;;5052429;28;20579;-74
2022/08/02 07:49:49;;;;;;;4.77;3.70;;;20.60;99.90;;;;;;5051963;28;20511;-74
2022/08/02 07:52:16;;;;;;;3.80;3.30;;;20.70;99.90;;;;;;5051648;28;20464;-74
2022/08/02 07:54:45;;;;;;;3.70;3.20;;;20.80;99.90;;;;;;5052268;28;20564;-75
2022/08/02 07:57:12;;;;;;;4.63;3.77;;;20.80;99.90;;;;;;5048896;28;20479;-74
2022/08/02 07:59:39;;;;;;;3.40;3.10;;;20.90;99.90;;;;;;5030518;28;20610;-73
2022/08/02 08:02:07;;;;;;;5.70;4.00;;;21.00;99.90;;;;;;5030670;28;20480;-73
2022/08/02 08:04:34;;;;;;;3.83;3.30;;;21.10;99.90;;;;;;5032022;28;20464;-74
2022/08/02 08:07:04;;;;;;;4.00;3.60;;;21.10;99.90;;;;;;5031132;28;20489;-74
2022/08/02 08:09:31;;;;;;;3.73;3.43;;;21.30;99.90;;;;;;5031789;28;20514;-74
2022/08/02 08:12:00;;;;;;;2.90;2.70;;;21.40;99.90;;;;;;5030566;28;20469;-74
2022/08/02 08:14:28;;;;;;;3.40;3.10;;;21.50;99.90;;;;;;5030887;28;20473;-73
2022/08/02 08:16:55;;;;;;;5.70;3.83;;;21.60;99.90;;;;;;5031148;28;20489;-74
2022/08/02 08:19:22;;;;;;;4.90;3.40;;;21.70;99.90;;;;;;5031524;28;20480;-73
2022/08/02 08:21:49;;;;;;;3.90;3.60;;;21.80;99.90;;;;;;5030328;28;20519;-74
2022/08/02 08:24:17;;;;;;;3.80;3.40;;;21.80;99.90;;;;;;5030471;28;20840;-73
2022/08/02 08:26:48;;;;;;;3.23;2.97;;;21.80;99.90;;;;;;5031201;28;20525;-74
2022/08/02 08:29:17;;;;;;;3.43;3.13;;;21.80;99.90;;;;;;5030243;28;21207;-74
2022/08/02 08:31:44;;;;;;;4.05;3.60;;;21.90;99.90;;;;;;5024167;28;20471;-74
2022/08/02 08:34:12;;;;;;;3.50;3.20;;;22.00;99.90;;;;;;5032164;28;20207;-74
2022/08/02 08:36:39;;;;;;;3.80;3.50;;;22.20;99.90;;;;;;5046155;28;20495;-73
2022/08/02 08:39:07;;;;;;;4.97;4.50;;;22.30;99.90;;;;;;5047267;28;20476;-74
2022/08/02 08:41:43;;;;;;;4.43;4.03;;;22.30;99.90;;;;;;5046459;28;20492;-73
2022/08/02 08:44:10;;;;;;;4.47;4.03;;;22.30;99.90;;;;;;5046080;28;20490;-74
2022/08/02 08:46:42;;;;;;;3.80;3.10;;;22.30;99.90;;;;;;5047202;28;20868;-74
2022/08/02 08:49:14;;;;;;;3.47;3.17;;;22.50;99.90;;;;;;5046314;28;20464;-75
2022/08/02 08:51:44;;;;;;;4.47;4.10;;;22.80;99.90;;;;;;5045123;28;20940;-73
2022/08/02 08:54:16;;;;;;;3.77;3.47;;;23.00;99.90;;;;;;5044777;28;20468;-73
2022/08/02 08:56:43;;;;;;;4.77;3.20;;;23.20;99.90;;;;;;5045084;28;20806;-73
2022/08/02 08:59:10;;;;;;;3.90;3.50;;;23.40;99.90;;;;;;5043563;28;20458;-73
2022/08/02 09:01:39;;;;;;;3.73;3.43;;;23.60;99.90;;;;;;5026906;28;20478;-73
2022/08/02 09:04:07;;;;;;;3.70;3.10;;;23.90;99.90;;;;;;5025704;28;20962;-73
2022/08/02 09:06:34;;;;;;;3.37;3.10;;;24.00;99.90;;;;;;5027316;28;20591;-73
2022/08/02 09:09:01;;;;;;;3.27;2.97;;;24.20;99.90;;;;;;5026766;28;20998;-73
2022/08/02 09:11:27;;;;;;;3.93;3.43;;;24.10;99.90;;;;;;5027056;28;20459;-73
2022/08/02 09:13:57;;;;;;;4.10;3.03;;;23.90;99.90;;;;;;5026416;28;20475;-73
2022/08/02 09:16:33;;;;;;;3.97;3.57;;;23.70;99.90;;;;;;5027322;28;21022;-73
2022/08/02 09:19:17;;;;;;;6.10;3.10;;;23.60;99.90;;;;;;5027334;28;20468;-73
2022/08/02 09:21:44;;;;;;;4.20;3.50;;;23.60;99.90;;;;;;5026885;28;20495;-73
2022/08/02 09:24:21;;;;;;;3.60;3.30;;;23.60;99.90;;;;;;5026755;28;20461;-73
2022/08/02 09:26:49;;;;;;;3.60;3.30;;;23.70;99.90;;;;;;5026513;28;20565;-74
2022/08/02 09:29:17;;;;;;;4.37;3.80;;;23.80;99.90;;;;;;5026982;28;20474;-73
2022/08/02 09:31:44;;;;;;;5.17;4.10;;;23.70;99.90;;;;;;5025573;28;20471;-73
2022/08/02 09:34:13;;;;;;;4.13;3.73;;;23.40;99.90;;;;;;5025866;28;20837;-73
2022/08/02 09:36:41;;;;;;;3.73;3.43;;;23.40;99.90;;;;;;5027202;28;20887;-73
2022/08/02 09:39:13;;;;;;;4.30;3.90;;;23.60;99.90;;;;;;5027242;28;20467;-73
2022/08/02 09:41:42;;;;;;;4.63;3.60;;;23.90;99.90;;;;;;5026012;28;20499;-73
2022/08/02 09:44:11;;;;;;;4.40;4.03;;;24.20;99.90;;;;;;5026483;28;20467;-73
2022/08/02 09:46:39;;;;;;;3.90;3.50;;;24.40;99.90;;;;;;5026306;28;21028;-73
2022/08/02 09:49:08;;;;;;;3.70;3.40;;;24.70;99.90;;;;;;5039386;28;20458;-73
2022/08/02 09:51:38;;;;;;;3.60;3.30;;;25.00;99.90;;;;;;5046746;28;20459;-73
2022/08/02 09:54:06;;;;;;;3.73;3.43;;;25.10;99.90;;;;;;5045599;28;20571;-73
2022/08/02 09:56:48;;;;;;;3.53;3.20;;;25.20;99.90;;;;;;5045815;28;20495;-73
2022/08/02 09:59:16;;;;;;;3.57;3.27;;;25.40;99.90;;;;;;5046070;28;20471;-73
2022/08/02 10:01:45;;;;;;;2.90;2.70;;;25.50;99.90;;;;;;5032201;28;20502;-73
2022/08/02 10:04:13;;;;;;;3.87;3.57;;;25.70;99.90;;;;;;5024894;28;20468;-73
2022/08/02 10:06:43;;;;;;;3.53;3.23;;;25.80;99.90;;;;;;5025092;28;20495;-73
2022/08/02 10:09:12;;;;;;;4.33;3.00;;;25.90;99.90;;;;;;5025783;28;20558;-73
2022/08/02 10:11:40;;;;;;;3.13;2.83;;;26.00;99.90;;;;;;5025002;28;20468;-73
2022/08/02 10:14:09;;;;;;;9.50;3.93;;;26.20;99.90;;;;;;5025061;28;20510;-72
2022/08/02 10:16:37;;;;;;;3.47;3.17;;;26.30;99.90;;;;;;5025318;28;20516;-73
2022/08/02 10:19:04;;;;;;;3.70;3.33;;;26.50;99.90;;;;;;5025448;28;20866;-73
2022/08/02 10:21:36;;;;;;;3.37;3.07;;;26.60;99.90;;;;;;5026489;28;20845;-73
2022/08/02 10:24:08;;;;;;;5.20;3.53;;;26.80;99.90;;;;;;5024368;28;20472;-72
2022/08/02 10:26:35;;;;;;;3.70;3.40;;;26.90;99.90;;;;;;5024795;28;20893;-73
2022/08/02 10:29:03;;;;;;;3.53;3.23;;;27.00;99.90;;;;;;5025701;28;20469;-73
2022/08/02 10:31:36;;;;;;;4.10;3.60;;;27.10;99.90;;;;;;5025062;28;20461;-73
2022/08/02 10:34:07;;;;;;;3.40;3.10;;;27.10;99.90;;;;;;5024597;28;20551;-73
2022/08/02 10:36:36;;;;;;;5.83;3.10;;;27.20;99.90;;;;;;5025336;28;20507;-73
2022/08/02 10:39:06;;;;;;;3.90;3.00;;;27.20;99.90;;;;;;5023495;28;20472;-72
2022/08/02 10:41:54;;;;;;;3.40;2.80;;;27.10;99.90;;;;;;5024844;28;20489;-72
2022/08/02 10:44:27;;;;;;;3.43;3.13;;;26.90;99.90;;;;;;5019667;28;20550;-73
2022/08/02 10:47:23;;;;;;;3.40;3.10;;;26.70;99.90;;;;;;5025197;28;20852;-72
2022/08/02 10:49:51;;;;;;;5.50;3.30;;;26.70;99.90;;;;;;5025035;28;20469;-72
2022/08/02 10:52:19;;;;;;;3.30;3.00;;;26.50;99.90;;;;;;5025057;28;20460;-72
2022/08/02 10:54:54;;;;;;;3.60;3.30;;;26.40;99.90;;;;;;5024241;28;20464;-73
2022/08/02 10:57:23;;;;;;;3.57;3.27;;;26.40;99.90;;;;;;5024775;28;20512;-73
2022/08/02 10:59:52;;;;;;;3.20;2.77;;;26.60;99.90;;;;;;5024399;28;20475;-72
2022/08/02 11:02:38;;;;;;;3.40;3.10;;;26.80;99.90;;;;;;5024198;28;20933;-73
2022/08/02 11:05:08;;;;;;;3.20;2.90;;;27.00;99.90;;;;;;5024444;28;20472;-73
2022/08/02 11:07:39;;;;;;;3.37;2.83;;;27.30;99.90;;;;;;5024852;28;20477;-73
2022/08/02 11:10:37;;;;;;;3.70;3.40;;;27.40;99.90;;;;;;5024584;28;20472;-73
2022/08/02 11:13:13;;;;;;;3.50;3.20;;;27.40;99.90;;;;;;5024687;28;20476;-73
2022/08/02 11:15:55;;;;;;;3.13;2.93;;;27.10;99.90;;;;;;5023832;28;20584;-73
2022/08/02 11:18:23;;;;;;;3.63;3.33;;;26.90;99.90;;;;;;5024530;28;20464;-73
2022/08/02 11:21:21;;;;;;;3.50;3.20;;;26.60;99.90;;;;;;5024207;28;20494;-72
2022/08/02 11:23:48;;;;;;;3.23;3.00;;;26.50;99.90;;;;;;5023944;28;20500;-73
2022/08/02 11:26:45;;;;;;;3.80;2.90;;;26.40;99.90;;;;;;5024741;28;20499;-73
2022/08/02 11:29:12;;;;;;;3.37;3.00;;;26.20;99.90;;;;;;5024561;28;20536;-73
2022/08/02 11:31:40;;;;;;;3.40;3.10;;;26.10;99.90;;;;;;5024317;28;20556;-73
2022/08/02 11:34:06;;;;;;;3.00;2.70;;;26.30;99.90;;;;;;5024524;28;20465;-73
2022/08/02 11:36:33;;;;;;;3.17;2.90;;;26.50;99.90;;;;;;5025701;28;20495;-73
2022/08/02 11:39:10;;;;;;;3.43;3.13;;;26.90;99.90;;;;;;5028250;28;20908;-73
2022/08/02 11:41:37;;;;;;;3.23;3.00;;;27.00;99.90;;;;;;5027402;28;21425;-73
2022/08/02 11:44:05;;;;;;;3.43;3.13;;;27.00;99.90;;;;;;5027752;28;20938;-73
2022/08/02 11:46:32;;;;;;;5.03;2.90;;;27.10;99.90;;;;;;5028051;28;20492;-73
2022/08/02 11:49:12;;;;;;;3.77;3.47;;;27.10;99.90;;;;;;5028087;28;20471;-73
2022/08/02 11:51:39;;;;;;;2.53;2.33;;;27.00;99.90;;;;;;5027831;28;20575;-73
2022/08/02 11:54:06;;;;;;;3.00;2.70;;;26.90;99.90;;;;;;5027390;28;20972;-73
2022/08/02 11:56:32;;;;;;;3.10;2.80;;;26.70;99.90;;;;;;5027230;28;20495;-73
2022/08/02 11:59:06;;;;;;;3.10;2.90;;;26.60;99.90;;;;;;5042090;28;20476;-73
2022/08/02 12:01:33;;;;;;;4.30;3.90;;;26.80;99.90;;;;;;5046810;28;21050;-74
2022/08/02 12:04:02;;;;;;;3.40;3.10;;;27.00;99.90;;;;;;5046677;28;20905;-73
2022/08/02 12:06:29;;;;;;;3.20;3.00;;;27.40;99.90;;;;;;5047267;28;20484;-73
2022/08/02 12:09:02;;;;;;;3.47;3.17;;;27.60;99.90;;;;;;5046589;28;20468;-73
2022/08/02 12:11:29;;;;;;;3.13;2.93;;;27.80;99.90;;;;;;5047066;28;20468;-73
2022/08/02 12:13:56;;;;;;;3.40;3.10;;;27.80;99.90;;;;;;5046594;28;20463;-73
2022/08/02 12:19:21;;;;;;;5.30;3.47;;;28.10;99.90;;;;;;5047519;28;20451;-73
2022/08/02 12:21:48;;;;;;;3.83;3.33;;;28.30;99.90;;;;;;5047348;28;20494;-73
2022/08/02 12:24:27;;;;;;;3.33;3.03;;;28.30;99.90;;;;;;5047532;28;20476;-72
2022/08/02 12:26:54;;;;;;;3.70;3.30;;;28.30;99.90;;;;;;5047355;28;20484;-71
2022/08/02 12:29:30;;;;;;;3.50;3.23;;;28.30;99.70;;;;;;5046815;28;20552;-71
2022/08/02 12:31:58;;;;;;;3.90;3.10;;;28.20;99.90;;;;;;5046340;28;20482;-71
2022/08/02 12:34:25;;;;;;;2.90;2.70;;;28.20;99.90;;;;;;5043416;28;21062;-72
2022/08/02 12:37:04;;;;;;;3.13;2.93;;;28.20;99.90;;;;;;5046838;28;20484;-72
2022/08/02 12:39:41;;;;;;;3.50;3.20;;;28.30;99.90;;;;;;5046628;28;20514;-72
2022/08/02 12:42:09;;;;;;;3.37;3.07;;;28.50;99.90;;;;;;5046442;28;20488;-72
2022/08/02 12:44:49;;;;;;;3.27;2.97;;;28.70;99.90;;;;;;5046156;28;20472;-73
2022/08/02 12:47:17;;;;;;;2.70;2.50;;;28.90;99.90;;;;;;5046925;28;20479;-72
2022/08/02 12:49:44;;;;;;;3.13;2.90;;;29.10;99.90;;;;;;5048346;28;20464;-72
2022/08/02 12:52:22;;;;;;;2.87;2.67;;;29.30;99.90;;;;;;5047592;28;20785;-73
2022/08/02 12:54:49;;;;;;;3.00;2.80;;;29.30;98.20;;;;;;5046028;28;20483;-73
2022/08/02 12:57:19;;;;;;;2.83;2.40;;;29.30;99.90;;;;;;5046396;28;20592;-72
2022/08/02 12:59:51;;;;;;;3.17;2.57;;;29.30;99.70;;;;;;5047235;28;20522;-71
2022/08/02 13:02:19;;;;;;;3.30;2.83;;;29.40;99.00;;;;;;5046953;28;20512;-72